Terminal Aerodrome Forecast
Issued by NWS

Current Version | Previous Version | Text Only | Print | Product List | Glossary On
Versions: 1 2 3 4 5 6 7 8 9 10 11 12 13 14 15 16
284
FTUS41 KBGM 092338
TAFITH
TAF
KITH 092338Z 1000/1024 VRB03KT 2SM -SN BKN009 OVC012
      TEMPO 1000/1002 OVC003
     FM100300 VRB03KT P6SM BKN015 OVC050
     FM100600 VRB03KT P6SM BKN025 OVC050
     FM101200 23008KT 2SM -SN OVC015=

USA.gov is the U.S. government's official web portal to all federal, state and local government web resources and services.